OIBL  Bandar Lengeh  Airport

Bandar Lengeh, Iran

Add Bookmark
ICAO OIBL
IATA BDH
Type Airport
Status Operational
Latitude
26° 31' 55" N
26.532000
Longitude
54° 49' 29" E
54.824799
Local (DST + 5) UTC (GMT + 4)
Feb 8, 2016 10:12 Feb 8, 2016 18:42
Sunrise-Sunset Local UTC
Begin Civil Twilight 06:06 02:36
Sunrise 06:30 03:00
Sunset 05:39 14:09
End Civil Twilight 06:03 14:33
VFR
VFR
MVFR
MVFR
IFR
IFR
LIFR
LIFR
Unknown
Unavailable

Current Weather

METAR Observed VFR
OIBL 081800Z 26008KT CAVOK 20/16 Q1016 Mon, Feb 8, 2016 @ 18:00 UTC
(42 Minutes ago)
Visual Flight Rules
Wind Visibility Conditions
260° at 8 knots (15 kph) 10 km or more
  • No significant weather
Temperatures Readings Precipitation
Current Temp
20°C
68°F
Dewpoint
16°C
61°F
Humidity 78%
Altimeter 30" Hg
Sea Level Pressure 1,016 mb
Field Elevation
14 m
46 ft
None Recorded

Additional weather within a 92.6km radius of OIBL

Map ICAO Location
OIBS 74.8km S/SW (202°)
OIBA 75.9km S/SE (164°)
VFR
VFR
MVFR
MVFR
IFR
IFR
LIFR
LIFR
Unknown
Unavailable
-
-

CheckWX.com is intended as a tool to help pilots better visualize weather data. It is not intended as a substitute for an official weather briefing obtained from a Flight Service Station. CheckWX.com does not meet the FAA requirements for an official pre-flight weather briefing. Therefore, it's important that pilots still call and obtain an official FSS pre-flight weather briefing.

© 2007-2016 CheckWX.com
18:42:47 UTC